ENTO/TRF METAR and TAF weather

Enter ICAO airport designator
Station Type Date Time Source
ENTO METAR 2019/10/21 23:20 UTC NOAA

ENTO 212320Z AUTO 21006KT 9999 NCD 05/03 Q1014


Station Type Date Time Source
ENTO Decoded METAR 2019/10/21 23:20 UTC NOAA

Torp, Norway (ENTO) 59-12N 010-16E 88M
Oct 21, 2019 - 07:20 PM EDT / 2019.10.21 2320 UTC
Wind: from the SSW (210 degrees) at 7 MPH (6 KT):0
Visibility: greater than 7 mile(s):0
Temperature: 41 F (5 C)
Dew Point: 37 F (3 C)
Relative Humidity: 86%
Pressure (altimeter): 29.94 in. Hg (1014 hPa)
ob: ENTO 212320Z AUTO 21006KT 9999 NCD 05/03 Q1014
cycle: 23

Station Type Date Time Source
ENTO TAF 2019/10/21 18:57 UTC NOAA

TAF ENTO 211700Z 2118/2218 20008KT 9999 FEW008 BKN025 PROB30 2118/2202 BKN008
TEMPO 2209/2215 21015G28KT

Example: see airport list